Time;durP1;ratioP1;P1;durP2;ratioP2;P2;SDS_P1;SDS_P2;PMS_P1;PMS_P2;Temp;Humidity;BMP_temperature;BMP_pressure;BME280_temperature;BME280_humidity;BME280_pressure;Samples;Min_cycle;Max_cycle;Signal;HPM_P1;HPM_P2
2022/03/08 00:02:04;;;;;;;16.77;10.27;;;;;;;0.58;60.91;102299.06;5032463;28;20017;-55
2022/03/08 00:04:29;;;;;;;16.13;9.73;;;;;;;0.58;61.31;102301.66;5032000;28;20086;-56
2022/03/08 00:06:55;;;;;;;14.77;9.40;;;;;;;0.57;61.03;102293.91;5032106;28;20362;-55
2022/03/08 00:09:20;;;;;;;15.30;9.70;;;;;;;0.57;61.31;102299.97;5031997;28;20152;-55
2022/03/08 00:11:46;;;;;;;16.97;9.77;;;;;;;0.56;60.93;102293.06;5031612;28;20025;-53
2022/03/08 00:14:11;;;;;;;15.17;9.63;;;;;;;0.52;61.62;102286.25;5032075;28;20037;-55
2022/03/08 00:16:36;;;;;;;17.03;9.60;;;;;;;0.55;61.30;102293.97;5032080;28;20038;-54
2022/03/08 00:19:02;;;;;;;18.23;9.60;;;;;;;0.53;61.38;102287.94;5032155;28;20029;-56
2022/03/08 00:21:28;;;;;;;14.80;9.50;;;;;;;0.53;61.25;102290.56;5031617;28;20484;-55
2022/03/08 00:23:55;;;;;;;14.57;9.27;;;;;;;0.52;60.87;102286.25;5032276;28;20033;-55
2022/03/08 00:26:20;;;;;;;14.70;8.70;;;;;;;0.53;60.88;102287.94;5032191;28;20030;-54
2022/03/08 00:28:46;;;;;;;16.10;8.70;;;;;;;0.50;60.51;102285.47;5031971;28;20104;-54
2022/03/08 00:31:11;;;;;;;15.07;8.80;;;;;;;0.47;60.82;102278.59;5031323;28;20041;-53
2022/03/08 00:33:36;;;;;;;13.90;8.57;;;;;;;0.48;60.78;102282.06;5031703;28;20040;-56
2022/03/08 00:36:03;;;;;;;14.73;8.90;;;;;;;0.46;60.16;102276.03;5031626;28;20041;-55
2022/03/08 00:38:28;;;;;;;14.53;8.70;;;;;;;0.45;59.95;102284.78;5031588;28;20471;-56
2022/03/08 00:40:53;;;;;;;13.67;9.03;;;;;;;0.42;60.38;102280.53;5031413;28;20033;-56
2022/03/08 00:43:18;;;;;;;12.63;8.43;;;;;;;0.44;60.40;102283.94;5031940;28;20519;-53
2022/03/08 00:45:44;;;;;;;15.43;8.63;;;;;;;0.44;60.51;102283.09;5031554;28;20040;-55
2022/03/08 00:48:09;;;;;;;16.07;7.97;;;;;;;0.44;60.07;102275.28;5032016;28;20468;-54
2022/03/08 00:50:36;;;;;;;15.30;8.47;;;;;;;0.43;59.96;102278.78;5031549;28;20025;-56
2022/03/08 00:53:02;;;;;;;13.90;8.50;;;;;;;0.42;60.01;102279.69;5031792;28;20117;-55
2022/03/08 00:55:29;;;;;;;12.70;8.23;;;;;;;0.39;60.26;102276.28;5031846;28;20040;-54
2022/03/08 00:57:55;;;;;;;15.47;8.53;;;;;;;0.42;59.61;102279.69;5031944;28;20048;-54
2022/03/08 01:00:23;;;;;;;12.50;8.10;;;;;;;0.36;59.99;102265.97;5031620;28;20038;-55
2022/03/08 01:02:48;;;;;;;14.97;8.50;;;;;;;0.40;60.35;102277.16;5031328;28;20041;-54
2022/03/08 01:05:14;;;;;;;14.27;8.00;;;;;;;0.37;59.88;102283.34;5031804;28;20044;-54
2022/03/08 01:07:39;;;;;;;14.23;8.10;;;;;;;0.38;60.34;102273.72;5031692;28;20054;-54
2022/03/08 01:10:09;;;;;;;14.43;8.40;;;;;;;0.34;59.44;102275.59;5031121;28;20034;-54
2022/03/08 01:12:34;;;;;;;14.33;8.60;;;;;;;0.36;60.11;102275.56;5031825;28;20108;-55
2022/03/08 01:15:01;;;;;;;14.53;8.40;;;;;;;0.34;59.69;102278.22;5031519;28;20533;-55
2022/03/08 01:17:27;;;;;;;12.60;8.37;;;;;;;0.32;59.29;102277.44;5030575;28;20028;-54
2022/03/08 01:19:53;;;;;;;13.60;7.90;;;;;;;0.32;59.33;102274.84;5031481;28;20083;-56
2022/03/08 01:22:18;;;;;;;14.17;8.20;;;;;;;0.31;59.47;102282.72;5031356;28;20025;-55
2022/03/08 01:24:43;;;;;;;14.27;8.10;;;;;;;0.29;59.09;102274.94;5031252;28;20036;-54
2022/03/08 01:27:08;;;;;;;14.60;8.33;;;;;;;0.29;58.66;102274.94;5031665;28;20117;-55
2022/03/08 01:29:34;;;;;;;12.37;7.77;;;;;;;0.26;59.17;102269.84;5033060;28;20468;-55
2022/03/08 01:31:59;;;;;;;14.73;8.33;;;;;;;0.28;59.09;102270.63;5031138;28;20465;-55
2022/03/08 01:34:24;;;;;;;13.90;8.10;;;;;;;0.28;59.26;102273.25;5035198;28;20033;-55
2022/03/08 01:36:50;;;;;;;13.77;8.37;;;;;;;0.24;59.40;102263.81;5031710;28;20025;-55
2022/03/08 01:39:15;;;;;;;16.73;8.60;;;;;;;0.24;59.91;102261.22;5031506;28;20064;-54
2022/03/08 01:41:41;;;;;;;16.17;8.87;;;;;;;0.21;59.31;102256.13;5031289;28;20088;-55
2022/03/08 01:44:08;;;;;;;12.07;7.50;;;;;;;0.22;58.84;102248.25;5031305;28;20459;-55
2022/03/08 01:46:36;;;;;;;14.43;8.07;;;;;;;0.21;58.78;102245.69;5033948;28;20021;-55
2022/03/08 01:49:02;;;;;;;14.07;8.43;;;;;;;0.20;58.63;102244.00;5035369;28;20049;-55
2022/03/08 01:51:28;;;;;;;14.20;8.20;;;;;;;0.16;58.87;102238.03;5033201;28;20125;-56
2022/03/08 01:53:53;;;;;;;15.57;7.70;;;;;;;0.13;59.16;102238.16;5035284;28;20117;-55
2022/03/08 01:56:18;;;;;;;14.43;8.00;;;;;;;0.13;59.54;102232.94;5034910;28;20041;-55
2022/03/08 01:58:44;;;;;;;12.60;8.03;;;;;;;0.08;59.32;102230.50;5035095;28;20511;-53
2022/03/08 02:01:09;;;;;;;15.37;8.57;;;;;;;0.08;59.47;102240.06;5034321;28;20029;-55
2022/03/08 02:03:34;;;;;;;12.07;8.13;;;;;;;0.06;59.47;102232.34;5034830;28;20037;-54
2022/03/08 02:06:00;;;;;;;14.80;8.30;;;;;;;0.04;59.69;102231.50;5034813;28;20773;-56
2022/03/08 02:08:26;;;;;;;12.23;8.10;;;;;;;0.05;59.26;102221.94;5038144;28;20049;-56
2022/03/08 02:10:52;;;;;;;13.23;8.33;;;;;;;0.04;59.52;102226.31;5034533;28;20037;-55
2022/03/08 02:13:18;;;;;;;12.97;8.20;;;;;;;0.04;60.05;102218.47;5034581;28;20148;-55
2022/03/08 02:15:50;;;;;;;15.47;8.07;;;;;;;-0.01;60.01;102209.97;5034777;28;20104;-52
2022/03/08 02:18:17;;;;;;;14.98;8.27;;;;;;;0.03;60.09;102208.09;5036709;28;20056;-55
2022/03/08 02:20:42;;;;;;;14.00;8.37;;;;;;;0.01;59.01;102208.19;5044601;28;20048;-55
2022/03/08 02:23:07;;;;;;;13.90;7.97;;;;;;;-0.01;59.27;102208.22;5034469;28;20483;-53
2022/03/08 02:25:33;;;;;;;15.20;8.77;;;;;;;0.02;59.45;102215.09;5034722;28;20461;-55
2022/03/08 02:27:58;;;;;;;13.30;8.33;;;;;;;0.01;59.53;102215.13;5034371;28;20080;-55
2022/03/08 02:30:25;;;;;;;13.40;8.57;;;;;;;-0.03;59.46;102206.59;5035021;28;20029;-55
2022/03/08 02:32:51;;;;;;;14.83;8.63;;;;;;;-0.03;59.86;102219.63;5033666;28;20021;-56
2022/03/08 02:35:22;;;;;;;13.53;8.23;;;;;;;-0.04;60.36;102204.88;5033798;28;20396;-55
2022/03/08 02:37:50;;;;;;;14.20;8.70;;;;;;;-0.02;59.92;102208.28;5033417;28;20114;-56
2022/03/08 02:40:18;;;;;;;14.67;8.60;;;;;;;-0.04;60.29;102203.09;5033442;28;20121;-55
2022/03/08 02:42:44;;;;;;;14.80;8.77;;;;;;;-0.06;60.14;102196.25;5034412;28;20112;-54
2022/03/08 02:45:11;;;;;;;13.43;8.67;;;;;;;-0.06;59.63;102204.06;5022095;28;20121;-55
2022/03/08 02:47:36;;;;;;;12.60;8.40;;;;;;;-0.07;60.59;102195.41;5027054;28;20079;-54
2022/03/08 02:50:03;;;;;;;12.93;8.37;;;;;;;-0.14;60.17;102184.34;5031231;28;20529;-56
2022/03/08 02:52:28;;;;;;;14.17;8.50;;;;;;;-0.08;59.79;102192.88;5033239;28;20037;-56
2022/03/08 02:54:54;;;;;;;13.03;8.20;;;;;;;-0.10;59.86;102189.47;5032645;28;20056;-55
2022/03/08 02:57:19;;;;;;;13.37;8.50;;;;;;;-0.09;60.05;102181.59;5034825;28;20028;-55
2022/03/08 02:59:44;;;;;;;13.13;8.60;;;;;;;-0.09;60.42;102184.22;5044645;28;20041;-55
2022/03/08 03:02:10;;;;;;;14.40;8.37;;;;;;;-0.10;60.21;102179.03;5029705;28;20022;-56
2022/03/08 03:04:36;;;;;;;14.70;8.80;;;;;;;-0.11;60.66;102172.97;5033491;28;20416;-56
2022/03/08 03:07:01;;;;;;;14.23;8.73;;;;;;;-0.12;59.95;102170.41;5032680;28;20050;-54
2022/03/08 03:09:26;;;;;;;13.50;8.60;;;;;;;-0.14;60.33;102173.94;5033887;28;20038;-55
2022/03/08 03:11:51;;;;;;;12.77;8.33;;;;;;;-0.11;59.80;102164.31;5034284;28;20025;-55
2022/03/08 03:14:17;;;;;;;16.50;9.60;;;;;;;-0.16;60.44;102165.31;5037903;28;20038;-55
2022/03/08 03:16:42;;;;;;;13.83;8.63;;;;;;;-0.20;60.68;102163.72;5033524;28;20033;-55
2022/03/08 03:19:08;;;;;;;13.17;8.80;;;;;;;-0.18;60.62;102148.03;5033240;28;20041;-55
2022/03/08 03:21:33;;;;;;;14.43;8.90;;;;;;;-0.19;59.92;102149.78;5032841;28;20096;-53
2022/03/08 03:23:58;;;;;;;14.00;8.83;;;;;;;-0.20;60.80;102153.31;5033166;28;20040;-55
2022/03/08 03:26:24;;;;;;;15.40;9.30;;;;;;;-0.21;60.61;102146.41;5038475;28;20060;-55
2022/03/08 03:28:49;;;;;;;14.17;8.50;;;;;;;-0.23;60.46;102140.41;5032598;28;20442;-54
2022/03/08 03:31:15;;;;;;;15.50;8.90;;;;;;;-0.25;60.34;102139.59;5032806;28;20429;-55
2022/03/08 03:33:41;;;;;;;13.90;9.10;;;;;;;-0.27;60.49;102125.78;5032495;28;20021;-55
2022/03/08 03:36:06;;;;;;;15.80;9.00;;;;;;;-0.27;60.70;102131.00;5033293;28;20078;-54
2022/03/08 03:38:31;;;;;;;14.53;9.33;;;;;;;-0.29;60.38;102132.81;5032900;28;20384;-54
2022/03/08 03:40:57;;;;;;;14.73;8.97;;;;;;;-0.30;60.93;102129.34;5032759;28;20025;-55
2022/03/08 03:43:22;;;;;;;13.37;9.07;;;;;;;-0.32;60.97;102130.31;5039767;28;20033;-53
2022/03/08 03:45:47;;;;;;;14.90;8.83;;;;;;;-0.34;61.61;102124.31;5037429;28;20167;-55
2022/03/08 03:48:13;;;;;;;15.47;8.90;;;;;;;-0.36;60.55;102136.53;5032794;28;20033;-54
2022/03/08 03:50:38;;;;;;;15.17;9.47;;;;;;;-0.37;60.97;102129.63;5032436;28;20044;-55
2022/03/08 03:53:03;;;;;;;15.30;9.50;;;;;;;-0.38;61.25;102134.00;5032982;28;20518;-55
2022/03/08 03:55:29;;;;;;;14.60;9.30;;;;;;;-0.39;61.12;102136.66;5032797;28;20029;-55
2022/03/08 03:57:54;;;;;;;14.23;9.20;;;;;;;-0.45;60.81;102127.34;5034549;28;20055;-55
2022/03/08 04:00:19;;;;;;;14.23;9.17;;;;;;;-0.42;61.31;102138.50;5031195;28;20099;-54
2022/03/08 04:02:45;;;;;;;15.50;9.40;;;;;;;-0.44;61.32;102135.06;5032214;28;20033;-56
2022/03/08 04:05:11;;;;;;;17.23;9.57;;;;;;;-0.46;61.68;102128.22;5032260;28;20037;-55
2022/03/08 04:07:36;;;;;;;14.67;9.33;;;;;;;-0.47;61.89;102135.22;5032478;28;20408;-55
2022/03/08 04:10:04;;;;;;;15.67;9.67;;;;;;;-0.58;61.24;102111.31;5031557;28;20035;-56
2022/03/08 04:12:29;;;;;;;16.83;9.83;;;;;;;-0.49;61.33;102131.78;5030913;28;20037;-55
2022/03/08 04:14:54;;;;;;;15.97;9.20;;;;;;;-0.53;61.11;102130.22;5031770;28;20033;-55
2022/03/08 04:17:21;;;;;;;15.10;9.50;;;;;;;-0.54;62.07;102128.53;5032527;28;20044;-54
2022/03/08 04:19:46;;;;;;;14.80;9.37;;;;;;;-0.56;61.72;102128.56;5032243;28;20083;-55
2022/03/08 04:22:11;;;;;;;14.53;9.23;;;;;;;-0.54;61.60;102128.53;5031190;28;20416;-55
2022/03/08 04:24:37;;;;;;;14.70;8.97;;;;;;;-0.57;61.60;102120.81;5031475;28;20040;-56
2022/03/08 04:27:03;;;;;;;15.40;9.60;;;;;;;-0.55;61.21;102126.81;5032408;28;20022;-55
2022/03/08 04:29:29;;;;;;;17.53;9.20;;;;;;;-0.56;61.50;102119.91;5032307;28;20033;-54
2022/03/08 04:31:54;;;;;;;13.93;9.17;;;;;;;-0.58;61.26;102117.34;5031687;28;20079;-54
2022/03/08 04:34:20;;;;;;;15.63;9.23;;;;;;;-0.59;61.23;102114.81;5032002;28;20483;-55
2022/03/08 04:36:45;;;;;;;13.47;8.93;;;;;;;-0.61;62.02;102124.44;5032190;28;20021;-56
2022/03/08 04:39:10;;;;;;;15.77;9.20;;;;;;;-0.61;61.83;102127.91;5031720;28;20029;-54
2022/03/08 04:41:36;;;;;;;14.80;9.23;;;;;;;-0.63;61.48;102124.50;5030419;28;20036;-55
2022/03/08 04:44:01;;;;;;;15.13;9.70;;;;;;;-0.63;61.56;102123.66;5031623;28;20519;-54
2022/03/08 04:46:26;;;;;;;15.83;9.67;;;;;;;-0.63;61.80;102124.50;5031878;28;20029;-56
2022/03/08 04:48:51;;;;;;;15.23;9.37;;;;;;;-0.64;61.77;102121.94;5031656;28;20025;-55
2022/03/08 04:51:17;;;;;;;16.93;9.80;;;;;;;-0.66;61.60;102122.00;5031391;28;20087;-55
2022/03/08 04:53:42;;;;;;;16.93;10.07;;;;;;;-0.66;61.67;102116.78;5031422;28;20629;-50
2022/03/08 04:56:08;;;;;;;15.03;9.90;;;;;;;-0.66;62.31;102123.78;5027750;28;20088;-54
2022/03/08 04:58:33;;;;;;;15.63;9.77;;;;;;;-0.68;62.25;102127.25;5025536;28;20030;-53
2022/03/08 05:00:59;;;;;;;17.00;9.33;;;;;;;-0.66;62.36;102128.97;5023183;28;20388;-55
2022/03/08 05:03:24;;;;;;;15.93;9.33;;;;;;;-0.70;62.16;102121.25;5026824;28;20123;-53
2022/03/08 05:05:49;;;;;;;14.67;9.27;;;;;;;-0.70;62.01;102126.47;5030429;28;20035;-56
2022/03/08 05:08:15;;;;;;;15.33;9.40;;;;;;;-0.70;62.17;102118.66;5031332;28;20124;-53
2022/03/08 05:10:40;;;;;;;14.57;9.10;;;;;;;-0.72;62.26;102120.47;5031369;28;20047;-53
2022/03/08 05:13:06;;;;;;;18.13;9.90;;;;;;;-0.73;62.46;102118.75;5031712;28;20030;-55
2022/03/08 05:15:31;;;;;;;14.93;9.30;;;;;;;-0.74;62.43;102116.22;5046837;28;20033;-54
2022/03/08 05:17:56;;;;;;;17.73;9.77;;;;;;;-0.76;62.45;102107.59;5031353;28;20035;-56
2022/03/08 05:20:22;;;;;;;16.33;10.13;;;;;;;-0.79;62.63;102113.78;5032106;28;20025;-52
2022/03/08 05:22:47;;;;;;;17.83;9.43;;;;;;;-0.77;62.87;102111.97;5035571;28;20021;-55
2022/03/08 05:25:12;;;;;;;16.80;9.93;;;;;;;-0.80;63.19;102111.25;5034991;28;20033;-52
2022/03/08 05:27:38;;;;;;;16.37;9.90;;;;;;;-0.83;62.68;102101.78;5039406;28;20449;-54
2022/03/08 05:30:05;;;;;;;16.00;10.17;;;;;;;-0.86;62.88;102101.88;5035837;28;20416;-55
2022/03/08 05:32:30;;;;;;;17.17;10.10;;;;;;;-0.87;62.86;102101.06;5036305;28;20052;-55
2022/03/08 05:34:55;;;;;;;15.90;9.57;;;;;;;-0.87;63.55;102108.00;5033556;28;20480;-56
2022/03/08 05:37:21;;;;;;;15.53;9.50;;;;;;;-0.89;62.84;102108.03;5035169;28;20091;-54
2022/03/08 05:39:46;;;;;;;16.97;9.83;;;;;;;-0.92;62.86;102105.56;5035303;28;20061;-55
2022/03/08 05:42:11;;;;;;;16.77;9.93;;;;;;;-0.92;63.32;102102.09;5033498;28;20057;-55
2022/03/08 05:44:38;;;;;;;16.10;9.40;;;;;;;-0.93;63.19;102097.81;5035055;28;20038;-55
2022/03/08 05:47:04;;;;;;;14.93;9.43;;;;;;;-0.97;63.11;102103.13;5037787;28;20029;-54
2022/03/08 05:49:29;;;;;;;17.00;9.70;;;;;;;-0.98;63.25;102097.97;5034597;28;20102;-54
2022/03/08 05:51:55;;;;;;;17.70;9.67;;;;;;;-0.98;63.60;102109.22;5035993;28;20056;-55
2022/03/08 05:54:20;;;;;;;17.23;10.00;;;;;;;-0.99;63.72;102104.94;5023948;28;20029;-55
2022/03/08 05:56:45;;;;;;;15.43;9.13;;;;;;;-0.99;62.78;102107.53;5031319;28;20030;-53
2022/03/08 05:59:11;;;;;;;16.27;10.17;;;;;;;-1.02;63.36;102105.06;5033399;28;20061;-52
2022/03/08 06:01:36;;;;;;;15.60;9.33;;;;;;;-0.99;63.54;102098.88;5033328;28;20045;-54
2022/03/08 06:04:02;;;;;;;19.37;10.00;;;;;;;-0.99;63.61;102091.91;5031837;28;20128;-53
2022/03/08 06:06:28;;;;;;;14.97;8.77;;;;;;;-1.03;63.42;102095.50;5033968;28;20426;-54
2022/03/08 06:08:53;;;;;;;17.27;9.23;;;;;;;-1.00;63.61;102097.16;5031758;28;20065;-54
2022/03/08 06:11:18;;;;;;;17.10;9.90;;;;;;;-1.03;63.08;102090.31;5027390;28;20397;-53
2022/03/08 06:13:44;;;;;;;16.27;9.60;;;;;;;-1.01;63.60;102096.34;5021754;28;20057;-53
2022/03/08 06:16:10;;;;;;;17.43;9.90;;;;;;;-0.99;62.84;102097.13;5021586;28;20045;-54
2022/03/08 06:18:35;;;;;;;16.63;9.40;;;;;;;-1.01;64.20;102093.72;5022239;28;20465;-55
2022/03/08 06:21:01;;;;;;;15.57;9.40;;;;;;;-0.98;63.28;102104.00;5028229;28;20042;-55
2022/03/08 06:23:26;;;;;;;17.73;9.13;;;;;;;-0.95;63.06;102098.72;5028398;28;20029;-55
2022/03/08 06:25:52;;;;;;;15.00;9.43;;;;;;;-0.98;63.36;102093.59;5028399;28;20034;-50
2022/03/08 06:28:17;;;;;;;17.13;10.17;;;;;;;-0.98;63.47;102104.00;5027810;28;20068;-55
2022/03/08 06:30:42;;;;;;;17.53;9.77;;;;;;;-0.93;63.34;102100.41;5022539;28;20026;-54
2022/03/08 06:33:07;;;;;;;15.90;9.50;;;;;;;-0.93;63.76;102105.63;5023081;28;20042;-53
2022/03/08 06:35:33;;;;;;;14.60;9.03;;;;;;;-0.90;63.89;102106.34;5022690;28;20092;-56
2022/03/08 06:37:58;;;;;;;16.90;9.70;;;;;;;-0.85;63.52;102098.38;5025076;28;20029;-55
2022/03/08 06:40:24;;;;;;;15.53;9.70;;;;;;;-0.84;63.50;102097.47;5023746;28;20041;-53
2022/03/08 06:42:50;;;;;;;15.50;9.10;;;;;;;-0.82;63.42;102093.06;5026217;28;20428;-56
2022/03/08 06:45:15;;;;;;;15.33;9.53;;;;;;;-0.77;63.05;102096.34;5020057;28;20045;-52
2022/03/08 06:47:40;;;;;;;14.90;9.03;;;;;;;-0.73;63.08;102097.91;5020787;28;20100;-56
2022/03/08 06:50:06;;;;;;;18.07;9.60;;;;;;;-0.69;62.30;102099.50;5031554;28;20021;-58
2022/03/08 06:52:31;;;;;;;16.57;9.43;;;;;;;-0.64;62.59;102101.94;5023062;28;20412;-55
2022/03/08 06:54:57;;;;;;;16.20;9.43;;;;;;;-0.58;62.90;102103.47;5025758;28;20129;-57
2022/03/08 06:57:22;;;;;;;14.87;9.40;;;;;;;-0.55;62.80;102100.75;5022170;28;20039;-56
2022/03/08 06:59:47;;;;;;;16.87;9.53;;;;;;;-0.47;62.61;102101.31;5028237;28;20030;-57
2022/03/08 07:02:12;;;;;;;19.20;9.43;;;;;;;-0.45;61.86;102091.69;5029792;28;20032;-57
2022/03/08 07:04:38;;;;;;;15.73;9.33;;;;;;;-0.36;62.64;102105.25;5023496;28;20104;-58
2022/03/08 07:07:03;;;;;;;16.90;9.37;;;;;;;-0.31;62.23;102092.91;5021840;28;20045;-58
2022/03/08 07:09:29;;;;;;;15.70;9.70;;;;;;;-0.24;61.93;102093.53;5021418;28;20033;-58
2022/03/08 07:11:54;;;;;;;17.20;9.57;;;;;;;-0.19;62.14;102082.00;5023653;28;20029;-57
2022/03/08 07:14:20;;;;;;;17.53;9.87;;;;;;;-0.10;61.51;102090.38;5020930;28;20387;-56
2022/03/08 07:16:46;;;;;;;17.53;9.60;;;;;;;0.00;60.17;102086.50;5024838;28;20037;-57
2022/03/08 07:19:13;;;;;;;14.50;8.83;;;;;;;0.05;60.63;102100.19;5027636;28;20117;-55
2022/03/08 07:21:38;;;;;;;16.33;9.47;;;;;;;0.12;60.21;102100.81;5028489;28;20029;-56
2022/03/08 07:24:04;;;;;;;15.50;9.50;;;;;;;0.18;59.54;102102.28;5024509;28;20495;-57
2022/03/08 07:26:29;;;;;;;16.40;9.47;;;;;;;0.26;60.01;102105.47;5018417;28;20034;-56
2022/03/08 07:28:55;;;;;;;17.33;9.10;;;;;;;0.30;59.12;102104.41;5023766;28;20021;-54
2022/03/08 07:31:20;;;;;;;17.03;9.40;;;;;;;0.36;59.67;102104.19;5021862;28;20030;-56
2022/03/08 07:33:45;;;;;;;16.13;9.57;;;;;;;0.43;58.56;102109.16;5021554;28;20065;-56
2022/03/08 07:36:10;;;;;;;16.43;9.27;;;;;;;0.45;58.14;102096.88;5028957;28;20033;-55
2022/03/08 07:38:36;;;;;;;19.50;9.20;;;;;;;0.54;58.00;102106.91;5025199;28;20117;-55
2022/03/08 07:41:05;;;;;;;18.63;10.13;;;;;;;0.61;58.08;102104.91;5025273;28;20036;-56
2022/03/08 07:43:31;;;;;;;18.37;9.47;;;;;;;0.66;57.57;102095.97;5021904;28;20480;-56
2022/03/08 07:45:56;;;;;;;20.13;9.20;;;;;;;0.75;57.69;102096.50;5024069;28;20029;-55
2022/03/08 07:48:21;;;;;;;20.13;9.27;;;;;;;0.80;57.31;102087.53;5026338;28;20069;-56
2022/03/08 07:50:47;;;;;;;16.20;9.63;;;;;;;0.88;57.47;102089.81;5026286;28;20249;-54
2022/03/08 07:53:12;;;;;;;16.37;9.53;;;;;;;0.93;57.10;102090.47;5026951;28;20100;-56
2022/03/08 07:55:37;;;;;;;20.43;9.50;;;;;;;1.01;56.66;102092.75;5020725;28;20461;-55
2022/03/08 07:58:04;;;;;;;17.83;9.87;;;;;;;1.10;55.80;102093.25;5028108;28;20034;-53
2022/03/08 08:00:31;;;;;;;15.03;9.27;;;;;;;1.17;56.31;102097.25;5023972;28;20116;-57
2022/03/08 08:02:56;;;;;;;15.93;9.20;;;;;;;1.25;55.54;102102.16;5029407;28;20025;-54
2022/03/08 08:05:22;;;;;;;19.43;9.37;;;;;;;1.31;55.31;102101.88;5026511;28;20609;-55
2022/03/08 08:07:47;;;;;;;18.70;9.47;;;;;;;1.38;55.18;102094.63;5021632;28;20499;-54
2022/03/08 08:10:12;;;;;;;15.87;8.83;;;;;;;1.42;55.10;102099.63;5025941;28;20037;-56
2022/03/08 08:12:38;;;;;;;16.90;9.53;;;;;;;1.55;54.03;102093.81;5017098;28;20028;-56
2022/03/08 08:15:05;;;;;;;14.90;9.63;;;;;;;1.57;54.80;102098.06;5023017;28;20492;-55
2022/03/08 08:17:30;;;;;;;15.27;9.53;;;;;;;1.64;54.56;102106.50;5028864;28;20103;-56
2022/03/08 08:19:56;;;;;;;14.87;9.30;;;;;;;1.71;54.00;102102.66;5027825;28;20048;-56
2022/03/08 08:22:21;;;;;;;15.93;8.97;;;;;;;1.77;53.89;102098.06;5027996;28;20068;-54
2022/03/08 08:24:46;;;;;;;16.43;8.87;;;;;;;1.77;54.21;102092.84;5024049;28;20037;-55
2022/03/08 08:27:12;;;;;;;15.57;8.87;;;;;;;1.88;53.89;102096.63;5022127;28;20033;-58
2022/03/08 08:29:37;;;;;;;13.13;8.73;;;;;;;1.96;53.29;102098.88;5024759;28;20034;-58
2022/03/08 08:32:03;;;;;;;15.23;9.73;;;;;;;2.00;53.53;102100.44;5021374;28;20048;-57
2022/03/08 08:34:29;;;;;;;14.37;9.27;;;;;;;2.06;52.99;102098.44;5027770;28;20040;-57
2022/03/08 08:36:54;;;;;;;15.50;8.87;;;;;;;2.14;53.18;102101.53;5024150;28;20029;-57
2022/03/08 08:39:19;;;;;;;15.07;9.13;;;;;;;2.22;52.95;102109.84;5024334;28;20052;-57
2022/03/08 08:41:44;;;;;;;14.27;8.73;;;;;;;2.29;52.77;102105.16;5019780;28;20045;-57
2022/03/08 08:44:11;;;;;;;13.53;8.60;;;;;;;2.38;52.19;102109.91;5026354;28;20037;-57
2022/03/08 08:46:36;;;;;;;13.07;8.10;;;;;;;2.44;52.17;102093.06;5021162;28;20036;-58
2022/03/08 08:49:02;;;;;;;19.37;8.20;;;;;;;2.54;51.04;102099.56;5025392;28;20026;-58
2022/03/08 08:51:28;;;;;;;14.77;8.47;;;;;;;2.60;51.36;102084.41;5023826;28;20037;-57
2022/03/08 08:53:53;;;;;;;12.93;8.30;;;;;;;2.65;50.87;102090.28;5020511;28;20392;-58
2022/03/08 08:56:18;;;;;;;12.07;8.00;;;;;;;2.72;51.06;102077.72;5028806;28;20037;-56
2022/03/08 08:58:44;;;;;;;13.93;8.37;;;;;;;2.80;50.39;102079.03;5027660;28;20536;-57
2022/03/08 09:01:09;;;;;;;12.70;8.10;;;;;;;2.88;50.33;102080.38;5024284;28;20484;-57
2022/03/08 09:03:35;;;;;;;12.60;7.83;;;;;;;2.99;49.89;102087.69;5028967;28;20103;-58
2022/03/08 09:06:00;;;;;;;13.13;8.00;;;;;;;3.02;48.61;102077.91;5028202;28;20026;-57
2022/03/08 09:08:27;;;;;;;12.03;7.60;;;;;;;3.09;48.87;102084.50;5023795;28;20057;-57
2022/03/08 09:10:53;;;;;;;15.00;7.67;;;;;;;3.16;48.55;102084.19;5027144;28;20092;-58
2022/03/08 09:13:19;;;;;;;12.73;7.70;;;;;;;3.22;48.09;102084.69;5026675;28;20064;-58
2022/03/08 09:15:44;;;;;;;12.97;7.80;;;;;;;3.32;47.85;102085.06;5025707;28;20068;-56
2022/03/08 09:18:10;;;;;;;15.80;7.97;;;;;;;3.39;47.22;102084.72;5024680;28;20049;-56
2022/03/08 09:20:35;;;;;;;13.37;7.70;;;;;;;3.48;46.40;102079.81;5023255;28;20117;-57
2022/03/08 09:23:01;;;;;;;14.80;7.63;;;;;;;3.54;46.70;102078.63;5025756;28;20029;-57
2022/03/08 09:25:26;;;;;;;12.37;7.50;;;;;;;3.61;46.56;102073.91;5031622;28;20064;-56
2022/03/08 09:27:52;;;;;;;12.50;7.43;;;;;;;3.63;46.30;102059.75;5027422;28;20068;-56
2022/03/08 09:30:17;;;;;;;13.70;8.03;;;;;;;3.73;46.13;102067.09;5024450;28;20036;-56
2022/03/08 09:32:43;;;;;;;13.53;8.07;;;;;;;3.78;45.65;102059.81;5021999;28;20436;-56
2022/03/08 09:35:08;;;;;;;13.57;7.90;;;;;;;3.84;45.85;102054.22;5026614;28;20132;-57
2022/03/08 09:37:34;;;;;;;13.30;7.93;;;;;;;3.89;45.74;102052.19;5026182;28;20101;-57
2022/03/08 09:40:00;;;;;;;12.50;7.63;;;;;;;3.97;45.03;102064.88;5025263;28;20428;-56
2022/03/08 09:42:25;;;;;;;14.20;7.83;;;;;;;4.06;45.75;102050.38;5026326;28;20508;-55
2022/03/08 09:44:51;;;;;;;9.83;7.20;;;;;;;4.11;44.87;102040.47;5026974;28;20903;-56
2022/03/08 09:47:17;;;;;;;12.70;7.37;;;;;;;4.15;44.78;102041.97;5026544;28;20096;-55
2022/03/08 09:49:42;;;;;;;13.43;7.77;;;;;;;4.22;44.60;102036.34;5027564;28;20034;-54
2022/03/08 09:52:08;;;;;;;12.33;7.60;;;;;;;4.28;44.65;102041.22;5023828;28;20099;-57
2022/03/08 09:54:33;;;;;;;10.93;7.17;;;;;;;4.31;43.81;102041.06;5022464;28;20117;-57
2022/03/08 09:56:59;;;;;;;9.47;6.87;;;;;;;4.41;43.49;102039.59;5024885;28;20060;-56
2022/03/08 09:59:29;;;;;;;9.63;6.80;;;;;;;4.47;42.66;102040.13;5029427;28;20080;-56
2022/03/08 10:01:55;;;;;;;9.70;6.80;;;;;;;4.53;43.22;102038.00;5025727;28;20415;-56
2022/03/08 10:04:21;;;;;;;11.50;7.10;;;;;;;4.60;43.72;102030.63;5031408;28;20037;-56
2022/03/08 10:06:50;;;;;;;14.20;7.27;;;;;;;4.67;42.85;102024.03;5026674;28;20036;-55
2022/03/08 10:09:22;;;;;;;10.73;7.30;;;;;;;4.70;43.58;102023.84;5026528;28;20103;-57
2022/03/08 10:11:55;;;;;;;11.73;7.40;;;;;;;4.84;43.65;102035.31;5024621;28;20099;-56
2022/03/08 10:14:38;;;;;;;11.60;6.93;;;;;;;4.85;43.28;102029.13;5027972;28;20116;-55
2022/03/08 10:17:30;;;;;;;10.50;7.30;;;;;;;4.92;42.24;102027.78;5027231;28;20037;-56
2022/03/08 10:19:55;;;;;;;10.40;7.10;;;;;;;5.00;41.91;102031.72;5029922;28;20048;-57
2022/03/08 10:22:34;;;;;;;13.27;6.90;;;;;;;4.97;41.99;102017.84;5023793;28;20038;-54
2022/03/08 10:25:25;;;;;;;11.40;7.10;;;;;;;5.06;41.87;102031.34;5025977;28;20052;-56
2022/03/08 10:27:50;;;;;;;12.40;7.27;;;;;;;5.09;41.97;102025.91;5018199;28;20034;-56
2022/03/08 10:30:15;;;;;;;12.57;7.00;;;;;;;5.16;41.81;102018.44;5024219;28;20056;-53
2022/03/08 10:32:40;;;;;;;10.77;7.30;;;;;;;5.24;41.42;102035.44;5025733;28;20048;-58
2022/03/08 10:35:08;;;;;;;10.17;7.00;;;;;;;5.32;42.70;102032.31;5023823;28;20029;-58
2022/03/08 10:37:36;;;;;;;9.63;7.03;;;;;;;5.39;41.62;102027.53;5024062;28;20052;-60
2022/03/08 10:40:08;;;;;;;15.10;7.53;;;;;;;5.41;41.51;102025.63;5021444;28;20033;-54
2022/03/08 10:42:36;;;;;;;13.93;7.05;;;;;;;5.39;41.23;102006.50;5022153;28;20088;-56
2022/03/08 10:45:16;;;;;;;13.70;7.07;;;;;;;5.48;42.10;102000.63;5024602;28;20112;-55
2022/03/08 10:47:44;;;;;;;13.32;6.78;;;;;;;5.59;40.31;102013.09;5023686;28;20022;-55
2022/03/08 10:50:12;;;;;;;10.35;6.95;;;;;;;5.62;40.66;102012.03;5025891;28;20480;-55
2022/03/08 10:52:39;;;;;;;14.60;6.85;;;;;;;5.65;41.04;101996.06;5024101;28;20469;-56
2022/03/08 10:55:48;;;;;;;12.15;7.57;;;;;;;5.72;41.76;102007.88;5021514;28;20038;-56
2022/03/08 10:58:14;;;;;;;11.98;7.18;;;;;;;5.75;40.98;102002.41;5024726;28;20045;-55
2022/03/08 11:00:51;;;;;;;12.32;6.78;;;;;;;5.79;41.50;101998.59;5024315;28;20021;-56
2022/03/08 11:03:22;;;;;;;11.95;7.15;;;;;;;5.83;41.68;101993.16;5028328;28;20037;-54
2022/03/08 11:05:55;;;;;;;13.65;7.07;;;;;;;5.93;40.95;102000.34;5021446;28;20085;-55
2022/03/08 11:08:27;;;;;;;10.85;7.28;;;;;;;5.93;40.55;101983.72;5024455;28;20057;-54
2022/03/08 11:10:53;;;;;;;9.70;6.88;;;;;;;5.99;40.92;101988.56;5023816;28;20022;-57
2022/03/08 11:13:19;;;;;;;12.15;7.30;;;;;;;6.02;40.73;101982.25;5026075;28;20514;-55
2022/03/08 11:15:44;;;;;;;13.80;7.32;;;;;;;6.08;40.81;101992.41;5021827;28;20026;-54
2022/03/08 11:18:11;;;;;;;11.32;6.90;;;;;;;6.14;40.97;101980.59;5024225;28;20121;-56